Time;durP1;ratioP1;P1;durP2;ratioP2;P2;SDS_P1;SDS_P2;PMS_P1;PMS_P2;Temp;Humidity;BMP_temperature;BMP_pressure;BME280_temperature;BME280_humidity;BME280_pressure;Samples;Min_cycle;Max_cycle;Signal;HPM_P1;HPM_P2
2023/09/03 00:00:28;;;;;;;1.45;1.33;;;;;;;;;;5960889;28;20040;-72
2023/09/03 00:03:19;;;;;;;2.67;1.63;;;;;;;;;;5946637;28;20059;-72
2023/09/03 00:06:10;;;;;;;3.83;1.80;;;;;;;;;;5961081;28;20410;-74
2023/09/03 00:09:04;;;;;;;3.42;1.80;;;;;;;;;;5959800;28;20039;-74
2023/09/03 00:11:55;;;;;;;3.30;2.17;;;;;;;;;;5960218;28;20067;-74
2023/09/03 00:14:45;;;;;;;2.03;1.60;;;;;;;;;;5959367;28;20036;-73
2023/09/03 00:17:36;;;;;;;2.38;1.40;;;;;;;;;;5960548;28;20049;-75
2023/09/03 00:20:27;;;;;;;2.65;1.83;;;;;;;;;;5960458;28;20388;-75
2023/09/03 00:23:18;;;;;;;2.22;2.03;;;;;;;;;;5960359;28;20048;-73
2023/09/03 00:26:21;;;;;;;6.60;1.75;;;;;;;;;;5960231;28;20040;-73
2023/09/03 00:29:12;;;;;;;2.05;1.75;;;;;;;;;;5959110;28;20042;-72
2023/09/03 00:32:03;;;;;;;2.67;1.48;;;;;;;;;;5957760;28;20036;-73
2023/09/03 00:34:54;;;;;;;5.30;2.70;;;;;;;;;;5959653;28;20048;-73
2023/09/03 00:37:44;;;;;;;4.85;1.85;;;;;;;;;;5958752;28;20039;-74
2023/09/03 00:40:38;;;;;;;4.82;2.50;;;;;;;;;;5960142;28;20046;-73
2023/09/03 00:43:29;;;;;;;4.05;2.17;;;;;;;;;;5960156;28;20359;-73
2023/09/03 00:46:20;;;;;;;2.92;2.05;;;;;;;;;;5960018;28;20311;-74
2023/09/03 00:49:21;;;;;;;4.78;2.00;;;;;;;;;;5959986;28;20425;-73
2023/09/03 00:52:13;;;;;;;3.55;2.03;;;;;;;;;;5942077;28;20044;-73
2023/09/03 00:55:04;;;;;;;7.18;1.90;;;;;;;;;;5959786;28;20043;-75
2023/09/03 00:57:55;;;;;;;2.38;1.88;;;;;;;;;;5960227;28;20043;-73
2023/09/03 01:00:46;;;;;;;3.38;1.92;;;;;;;;;;5956690;28;20052;-72
2023/09/03 01:03:37;;;;;;;2.05;1.38;;;;;;;;;;5958348;28;20051;-74
2023/09/03 01:06:28;;;;;;;1.67;1.58;;;;;;;;;;5958317;28;20036;-74
2023/09/03 01:09:19;;;;;;;8.82;3.50;;;;;;;;;;5959555;28;20054;-75
2023/09/03 01:12:37;;;;;;;2.03;1.83;;;;;;;;;;5941201;28;20048;-74
2023/09/03 01:15:38;;;;;;;2.50;2.05;;;;;;;;;;5959271;28;20044;-73
2023/09/03 01:18:30;;;;;;;2.13;1.73;;;;;;;;;;5957894;28;20116;-73
2023/09/03 01:21:53;;;;;;;1.67;1.55;;;;;;;;;;5958729;28;20265;-74
2023/09/03 01:25:21;;;;;;;2.05;1.83;;;;;;;;;;5958112;28;20459;-75
2023/09/03 01:28:25;;;;;;;5.55;1.90;;;;;;;;;;5958782;28;20047;-73
2023/09/03 01:31:17;;;;;;;3.22;2.00;;;;;;;;;;5951857;28;20102;-73
2023/09/03 01:34:09;;;;;;;4.00;2.28;;;;;;;;;;5940885;28;20039;-72
2023/09/03 01:37:01;;;;;;;2.10;1.90;;;;;;;;;;5957616;28;20054;-74
2023/09/03 01:39:52;;;;;;;4.35;2.22;;;;;;;;;;5957951;28;20043;-74
2023/09/03 01:42:43;;;;;;;3.15;1.83;;;;;;;;;;5957068;28;20043;-74
2023/09/03 01:46:43;;;;;;;1.98;1.77;;;;;;;;;;5958574;28;20046;-74
2023/09/03 01:49:53;;;;;;;4.03;2.15;;;;;;;;;;5920003;28;20130;-73
2023/09/03 01:53:02;;;;;;;2.25;1.40;;;;;;;;;;5958575;28;20043;-74
2023/09/03 01:55:59;;;;;;;1.77;1.67;;;;;;;;;;5958677;28;20058;-74
2023/09/03 01:58:53;;;;;;;1.75;1.60;;;;;;;;;;5941043;28;20044;-73
2023/09/03 02:01:45;;;;;;;3.08;1.75;;;;;;;;;;5956839;28;20050;-73
2023/09/03 02:04:35;;;;;;;2.35;1.88;;;;;;;;;;5940138;28;20128;-74
2023/09/03 02:07:28;;;;;;;1.83;1.67;;;;;;;;;;5957044;28;20093;-72
2023/09/03 02:10:18;;;;;;;4.88;2.83;;;;;;;;;;5958294;28;20055;-74
2023/09/03 02:13:09;;;;;;;1.80;1.70;;;;;;;;;;5964042;27;20070;-74
2023/09/03 02:16:00;;;;;;;2.35;1.98;;;;;;;;;;5959492;27;20050;-73
2023/09/03 02:18:50;;;;;;;5.05;2.63;;;;;;;;;;5978710;27;20039;-72
2023/09/03 02:21:41;;;;;;;2.25;1.33;;;;;;;;;;5981842;27;20394;-73
2023/09/03 02:24:32;;;;;;;2.08;1.55;;;;;;;;;;5981857;27;20043;-73
2023/09/03 02:27:23;;;;;;;1.55;1.45;;;;;;;;;;5963481;27;20501;-73
2023/09/03 02:30:13;;;;;;;1.65;1.45;;;;;;;;;;5982021;27;20047;-73
2023/09/03 02:33:04;;;;;;;2.83;1.73;;;;;;;;;;5981674;27;20051;-75
2023/09/03 02:35:55;;;;;;;1.30;1.20;;;;;;;;;;5976917;27;20047;-74
2023/09/03 02:38:46;;;;;;;3.17;2.15;;;;;;;;;;5977655;27;20077;-73
2023/09/03 02:41:36;;;;;;;1.45;1.27;;;;;;;;;;5981427;28;20122;-72
2023/09/03 02:44:27;;;;;;;6.72;2.38;;;;;;;;;;5963460;28;20050;-73
2023/09/03 02:47:18;;;;;;;5.15;3.20;;;;;;;;;;5981425;28;20047;-75
2023/09/03 02:50:09;;;;;;;1.67;1.58;;;;;;;;;;5981711;28;20050;-73
2023/09/03 02:53:00;;;;;;;2.28;1.63;;;;;;;;;;5982094;28;20561;-74
2023/09/03 02:55:51;;;;;;;2.88;1.73;;;;;;;;;;5980673;27;20043;-74
2023/09/03 02:58:42;;;;;;;2.13;1.65;;;;;;;;;;5963397;27;20051;-73
2023/09/03 03:01:33;;;;;;;2.03;1.55;;;;;;;;;;5986203;27;20043;-73
2023/09/03 03:04:25;;;;;;;5.47;1.95;;;;;;;;;;5986422;27;20126;-74
2023/09/03 03:07:16;;;;;;;2.42;1.50;;;;;;;;;;5986154;27;20049;-71
2023/09/03 03:10:07;;;;;;;3.17;1.73;;;;;;;;;;5986266;27;20530;-73
2023/09/03 03:12:58;;;;;;;3.15;2.33;;;;;;;;;;5968314;27;20047;-73
2023/09/03 03:15:51;;;;;;;2.30;1.73;;;;;;;;;;5982820;27;20044;-74
2023/09/03 03:18:45;;;;;;;2.50;1.75;;;;;;;;;;5981308;27;20043;-73
2023/09/03 03:21:36;;;;;;;1.45;1.30;;;;;;;;;;5979789;27;20054;-74
2023/09/03 03:24:27;;;;;;;4.97;1.98;;;;;;;;;;5960203;27;20043;-73
2023/09/03 03:27:17;;;;;;;1.73;1.35;;;;;;;;;;5961640;28;20047;-72
2023/09/03 03:30:08;;;;;;;3.35;1.60;;;;;;;;;;5961807;28;20054;-76
2023/09/03 03:32:59;;;;;;;3.40;2.03;;;;;;;;;;5962136;28;20407;-73
2023/09/03 03:35:49;;;;;;;2.45;1.60;;;;;;;;;;5958437;28;20044;-74
2023/09/03 03:38:41;;;;;;;4.80;2.40;;;;;;;;;;5943364;28;20177;-74
2023/09/03 03:41:32;;;;;;;2.20;1.73;;;;;;;;;;5961338;28;20035;-73
2023/09/03 03:44:23;;;;;;;2.55;1.77;;;;;;;;;;5943240;28;20043;-72
2023/09/03 03:47:13;;;;;;;2.20;1.55;;;;;;;;;;5961438;28;20495;-74
2023/09/03 03:50:05;;;;;;;9.45;1.42;;;;;;;;;;5961452;28;20506;-73
2023/09/03 03:52:55;;;;;;;3.42;2.13;;;;;;;;;;5961677;28;20079;-72
2023/09/03 03:55:46;;;;;;;2.65;1.48;;;;;;;;;;5958056;28;20062;-74
2023/09/03 03:58:40;;;;;;;6.63;1.77;;;;;;;;;;5942916;28;20055;-72
2023/09/03 04:01:31;;;;;;;2.75;2.42;;;;;;;;;;5942732;28;20039;-74
2023/09/03 04:04:22;;;;;;;4.85;2.08;;;;;;;;;;5960821;28;20055;-73
2023/09/03 04:07:13;;;;;;;2.85;1.63;;;;;;;;;;5960771;28;20046;-74
2023/09/03 04:10:04;;;;;;;2.78;2.30;;;;;;;;;;5942705;28;20048;-74
2023/09/03 04:12:56;;;;;;;1.98;1.80;;;;;;;;;;5961062;28;20054;-73
2023/09/03 04:15:46;;;;;;;3.17;1.85;;;;;;;;;;5939644;28;20055;-74
2023/09/03 04:18:38;;;;;;;6.78;1.95;;;;;;;;;;5955303;28;20036;-72
2023/09/03 04:21:28;;;;;;;1.98;1.52;;;;;;;;;;5960408;28;20043;-74
2023/09/03 04:24:19;;;;;;;3.17;1.52;;;;;;;;;;5960635;28;20120;-74
2023/09/03 04:27:10;;;;;;;2.03;1.83;;;;;;;;;;5960262;28;20047;-74
2023/09/03 04:30:03;;;;;;;1.60;1.33;;;;;;;;;;5959924;28;20043;-76
2023/09/03 04:32:54;;;;;;;1.65;1.55;;;;;;;;;;5960812;28;20044;-74
2023/09/03 04:35:45;;;;;;;4.07;1.40;;;;;;;;;;5957655;28;20039;-72
2023/09/03 04:38:35;;;;;;;2.70;1.73;;;;;;;;;;5954727;28;20046;-75
2023/09/03 04:41:26;;;;;;;3.08;1.70;;;;;;;;;;5960239;28;20036;-72
2023/09/03 04:44:17;;;;;;;3.13;1.90;;;;;;;;;;5960209;28;20050;-73
2023/09/03 04:47:08;;;;;;;11.10;1.92;;;;;;;;;;5960098;28;20470;-73
2023/09/03 04:49:58;;;;;;;2.40;1.38;;;;;;;;;;5960054;28;20363;-74
2023/09/03 04:52:49;;;;;;;3.83;1.90;;;;;;;;;;5971222;27;20166;-72
2023/09/03 04:55:41;;;;;;;2.95;1.60;;;;;;;;;;5963563;27;20039;-74
2023/09/03 04:58:32;;;;;;;2.10;1.90;;;;;;;;;;5976394;27;20051;-73
2023/09/03 05:01:22;;;;;;;2.03;1.60;;;;;;;;;;5983625;27;20381;-75
2023/09/03 05:04:13;;;;;;;1.77;1.38;;;;;;;;;;5980394;27;20035;-72
2023/09/03 05:07:05;;;;;;;3.17;2.28;;;;;;;;;;5959400;27;20046;-72
2023/09/03 05:09:56;;;;;;;3.22;2.53;;;;;;;;;;5977501;27;20047;-72
2023/09/03 05:12:46;;;;;;;2.55;1.77;;;;;;;;;;5966124;27;20045;-73
2023/09/03 05:15:37;;;;;;;3.60;2.33;;;;;;;;;;5970643;27;20040;-75
2023/09/03 05:18:28;;;;;;;3.78;1.67;;;;;;;;;;5932066;28;20383;-73
2023/09/03 05:21:19;;;;;;;2.63;1.77;;;;;;;;;;5960226;27;20039;-73
2023/09/03 05:24:10;;;;;;;2.63;1.70;;;;;;;;;;5966318;27;20058;-73
2023/09/03 05:27:01;;;;;;;1.67;1.50;;;;;;;;;;5964864;27;20487;-73
2023/09/03 05:29:52;;;;;;;3.65;2.25;;;;;;;;;;5963664;27;20040;-75
2023/09/03 05:32:42;;;;;;;2.03;1.70;;;;;;;;;;5961822;27;20043;-72
2023/09/03 05:35:33;;;;;;;1.58;1.45;;;;;;;;;;5966102;27;20032;-71
2023/09/03 05:38:24;;;;;;;2.95;2.17;;;;;;;;;;5934082;28;20490;-72
2023/09/03 05:41:15;;;;;;;4.07;2.22;;;;;;;;;;5940996;28;20051;-74
2023/09/03 05:44:09;;;;;;;3.05;1.70;;;;;;;;;;5958399;28;20398;-74
2023/09/03 05:46:59;;;;;;;6.70;2.45;;;;;;;;;;5938139;28;20398;-72
2023/09/03 05:49:57;;;;;;;3.35;2.47;;;;;;;;;;5954687;28;20050;-73
2023/09/03 05:52:49;;;;;;;2.15;1.83;;;;;;;;;;5958394;28;20040;-72
2023/09/03 05:55:40;;;;;;;1.83;1.25;;;;;;;;;;5960268;27;20046;-73
2023/09/03 05:58:32;;;;;;;2.30;1.52;;;;;;;;;;5961499;27;20043;-73
2023/09/03 06:01:23;;;;;;;3.22;2.20;;;;;;;;;;5964291;27;20063;-72
2023/09/03 06:04:16;;;;;;;2.42;1.92;;;;;;;;;;5959856;27;20104;-73
2023/09/03 06:07:09;;;;;;;2.75;1.70;;;;;;;;;;5963216;27;20115;-72
2023/09/03 06:10:00;;;;;;;1.73;1.50;;;;;;;;;;5960213;27;20139;-73
2023/09/03 06:12:50;;;;;;;1.77;1.55;;;;;;;;;;5959789;27;20042;-74
2023/09/03 06:15:41;;;;;;;1.90;1.30;;;;;;;;;;5959413;27;20047;-73
2023/09/03 06:18:32;;;;;;;1.42;1.33;;;;;;;;;;5957455;28;20040;-72
2023/09/03 06:21:26;;;;;;;1.10;0.77;;;;;;;;;;5959959;27;20108;-74
2023/09/03 06:24:17;;;;;;;0.82;0.75;;;;;;;;;;5963945;27;20116;-74
2023/09/03 06:27:08;;;;;;;3.08;1.15;;;;;;;;;;5955192;27;20036;-73
2023/09/03 06:29:58;;;;;;;1.70;1.20;;;;;;;;;;5953664;27;20123;-74
2023/09/03 06:32:49;;;;;;;1.23;0.90;;;;;;;;;;5964623;27;20043;-73
2023/09/03 06:35:40;;;;;;;1.70;1.60;;;;;;;;;;5957287;27;20096;-72
2023/09/03 06:38:31;;;;;;;1.63;1.17;;;;;;;;;;5957107;28;20058;-72
2023/09/03 06:41:21;;;;;;;2.53;1.73;;;;;;;;;;5938803;28;20497;-72
2023/09/03 06:44:13;;;;;;;2.30;1.00;;;;;;;;;;5957167;28;20047;-73
2023/09/03 06:47:04;;;;;;;1.92;1.20;;;;;;;;;;5948679;28;20048;-71
2023/09/03 06:49:54;;;;;;;1.30;1.17;;;;;;;;;;5955682;28;20124;-71
2023/09/03 06:52:45;;;;;;;0.85;0.80;;;;;;;;;;5954280;28;20053;-71
2023/09/03 06:55:36;;;;;;;2.38;1.38;;;;;;;;;;5954168;28;20233;-72
2023/09/03 06:58:27;;;;;;;1.20;0.80;;;;;;;;;;5950201;28;20406;-73
2023/09/03 07:01:19;;;;;;;1.02;0.93;;;;;;;;;;5941466;28;20050;-73
2023/09/03 07:04:10;;;;;;;1.10;1.02;;;;;;;;;;5912045;28;20067;-73
2023/09/03 07:07:03;;;;;;;1.73;1.60;;;;;;;;;;5930810;28;20041;-75
2023/09/03 07:09:57;;;;;;;3.78;1.10;;;;;;;;;;5931664;28;20052;-74
2023/09/03 07:12:47;;;;;;;5.28;1.58;;;;;;;;;;5950566;28;20499;-75
2023/09/03 07:15:38;;;;;;;4.43;1.52;;;;;;;;;;5956177;28;20051;-73
2023/09/03 07:18:29;;;;;;;1.33;1.23;;;;;;;;;;5955539;28;20190;-74
2023/09/03 07:21:20;;;;;;;1.67;1.10;;;;;;;;;;5956865;28;20347;-73
2023/09/03 07:24:11;;;;;;;1.10;1.00;;;;;;;;;;5956927;28;20375;-74
2023/09/03 07:27:01;;;;;;;1.02;0.93;;;;;;;;;;5957216;28;20048;-74
2023/09/03 07:29:54;;;;;;;1.83;1.35;;;;;;;;;;5956856;28;20127;-73
2023/09/03 07:32:44;;;;;;;3.80;1.05;;;;;;;;;;5921899;28;20050;-75
2023/09/03 07:35:36;;;;;;;1.08;0.70;;;;;;;;;;5954961;28;20975;-75
2023/09/03 07:38:27;;;;;;;8.48;1.20;;;;;;;;;;5951330;28;20039;-73
2023/09/03 07:41:18;;;;;;;1.02;0.95;;;;;;;;;;5946077;28;20051;-74
2023/09/03 07:44:09;;;;;;;3.80;2.15;;;;;;;;;;5953281;27;20039;-73
2023/09/03 07:47:00;;;;;;;1.63;1.20;;;;;;;;;;5924984;28;20048;-74
2023/09/03 07:49:50;;;;;;;2.00;1.25;;;;;;;;;;5961242;28;20498;-72
2023/09/03 07:52:41;;;;;;;3.50;1.80;;;;;;;;;;5939798;28;20048;-72
2023/09/03 07:55:32;;;;;;;1.17;1.02;;;;;;;;;;5954965;27;20039;-73
2023/09/03 07:58:23;;;;;;;1.55;1.15;;;;;;;;;;5929989;28;20379;-74
2023/09/03 08:01:16;;;;;;;1.63;1.42;;;;;;;;;;5930305;27;20120;-72
2023/09/03 08:04:07;;;;;;;5.85;2.25;;;;;;;;;;5975677;27;20097;-73
2023/09/03 08:06:58;;;;;;;3.55;1.13;;;;;;;;;;5956112;27;20040;-73
2023/09/03 08:09:49;;;;;;;5.75;1.08;;;;;;;;;;5960857;27;20081;-72
2023/09/03 08:12:40;;;;;;;3.13;1.25;;;;;;;;;;5961786;27;20040;-71
2023/09/03 08:15:30;;;;;;;3.50;1.45;;;;;;;;;;5964334;27;20039;-75
2023/09/03 08:18:34;;;;;;;1.23;0.88;;;;;;;;;;5964925;27;20043;-75
2023/09/03 08:21:25;;;;;;;2.10;1.20;;;;;;;;;;5968958;27;20500;-72
2023/09/03 08:24:15;;;;;;;4.00;1.33;;;;;;;;;;5955247;27;20043;-73
2023/09/03 08:27:06;;;;;;;1.98;1.20;;;;;;;;;;5963198;27;20039;-72
2023/09/03 08:29:57;;;;;;;2.38;0.85;;;;;;;;;;5965947;27;20042;-72
2023/09/03 08:32:47;;;;;;;3.83;1.90;;;;;;;;;;5965211;27;20047;-73
2023/09/03 08:35:38;;;;;;;2.15;1.42;;;;;;;;;;5965890;27;20134;-74
2023/09/03 08:38:29;;;;;;;1.20;0.80;;;;;;;;;;5956726;28;20375;-73
2023/09/03 08:41:21;;;;;;;2.55;1.00;;;;;;;;;;5965737;27;20056;-72
2023/09/03 08:44:26;;;;;;;7.88;1.48;;;;;;;;;;5961368;27;20111;-73
2023/09/03 08:47:17;;;;;;;4.93;1.05;;;;;;;;;;5961920;27;20050;-75
2023/09/03 08:50:10;;;;;;;0.57;0.57;;;;;;;;;;5962150;27;20079;-73
2023/09/03 08:53:01;;;;;;;1.88;1.00;;;;;;;;;;5958246;28;20063;-74
2023/09/03 08:55:53;;;;;;;1.42;0.70;;;;;;;;;;5966555;27;20048;-72
2023/09/03 08:58:44;;;;;;;1.27;1.10;;;;;;;;;;5917873;28;20101;-73
2023/09/03 09:01:37;;;;;;;1.45;1.15;;;;;;;;;;5935364;28;20040;-74
2023/09/03 09:04:30;;;;;;;2.92;0.73;;;;;;;;;;5944406;27;20118;-74
2023/09/03 09:07:22;;;;;;;1.75;0.70;;;;;;;;;;5951260;27;20050;-73
2023/09/03 09:10:16;;;;;;;1.65;1.27;;;;;;;;;;5935615;27;20048;-73
2023/09/03 09:13:10;;;;;;;5.25;0.73;;;;;;;;;;5914354;28;20098;-75
2023/09/03 09:16:01;;;;;;;4.07;1.30;;;;;;;;;;5944866;28;20048;-72
2023/09/03 09:18:52;;;;;;;1.05;0.80;;;;;;;;;;5952575;27;20047;-72
2023/09/03 09:21:42;;;;;;;3.75;1.02;;;;;;;;;;5964211;27;20494;-74
2023/09/03 09:24:46;;;;;;;5.80;1.08;;;;;;;;;;5982470;27;20039;-72
2023/09/03 09:27:38;;;;;;;0.63;0.57;;;;;;;;;;5982679;27;20099;-72
2023/09/03 09:30:28;;;;;;;1.70;0.75;;;;;;;;;;5983051;27;20039;-71
2023/09/03 09:33:19;;;;;;;0.88;0.80;;;;;;;;;;5940398;27;20035;-71
2023/09/03 09:36:11;;;;;;;0.80;0.63;;;;;;;;;;5947202;28;21047;-75
2023/09/03 09:39:08;;;;;;;2.15;1.00;;;;;;;;;;5958608;27;20497;-73
2023/09/03 09:42:12;;;;;;;0.93;0.68;;;;;;;;;;5959895;27;20040;-72
2023/09/03 09:45:03;;;;;;;2.88;0.88;;;;;;;;;;5965302;27;20516;-73
2023/09/03 09:48:09;;;;;;;1.27;1.00;;;;;;;;;;5959596;27;20051;-74
2023/09/03 09:51:00;;;;;;;4.82;1.10;;;;;;;;;;5965329;27;20047;-74
2023/09/03 09:53:59;;;;;;;0.93;0.80;;;;;;;;;;5916586;28;20040;-72
2023/09/03 09:56:50;;;;;;;4.22;0.50;;;;;;;;;;5922763;27;20410;-74
2023/09/03 09:59:50;;;;;;;0.75;0.32;;;;;;;;;;5962973;27;20031;-73
2023/09/03 10:02:56;;;;;;;0.80;0.60;;;;;;;;;;5943062;28;20044;-72
2023/09/03 10:05:50;;;;;;;0.85;0.80;;;;;;;;;;5971681;27;20050;-72
2023/09/03 10:08:44;;;;;;;0.30;0.30;;;;;;;;;;5981683;27;20031;-74
2023/09/03 10:11:38;;;;;;;0.93;0.30;;;;;;;;;;5962879;27;20039;-73
2023/09/03 10:14:29;;;;;;;0.20;0.20;;;;;;;;;;5943282;27;20059;-73
2023/09/03 10:17:20;;;;;;;0.30;0.28;;;;;;;;;;5939605;28;20370;-73
2023/09/03 10:20:16;;;;;;;0.80;0.43;;;;;;;;;;5957375;28;20517;-73
2023/09/03 10:23:07;;;;;;;0.38;0.38;;;;;;;;;;5939430;28;20047;-73
2023/09/03 10:25:58;;;;;;;0.40;0.30;;;;;;;;;;5935715;28;20040;-73
2023/09/03 10:29:04;;;;;;;1.27;0.70;;;;;;;;;;5941027;28;20089;-74
2023/09/03 10:31:56;;;;;;;1.45;0.50;;;;;;;;;;5956318;28;20040;-73
2023/09/03 10:34:47;;;;;;;1.00;0.40;;;;;;;;;;5940586;28;20406;-73
2023/09/03 10:37:40;;;;;;;0.50;0.45;;;;;;;;;;5932812;28;20043;-73
2023/09/03 10:40:32;;;;;;;1.75;0.98;;;;;;;;;;5934034;28;20471;-75
2023/09/03 10:43:24;;;;;;;1.13;0.80;;;;;;;;;;5933932;28;20143;-74
2023/09/03 10:46:15;;;;;;;0.95;0.73;;;;;;;;;;5933901;28;20055;-74
2023/09/03 10:49:05;;;;;;;2.75;1.15;;;;;;;;;;5933987;28;20126;-73
2023/09/03 10:51:56;;;;;;;1.00;0.80;;;;;;;;;;5934394;28;20052;-73
2023/09/03 10:55:19;;;;;;;11.27;2.00;;;;;;;;;;5928564;28;20140;-74
2023/09/03 10:58:10;;;;;;;1.05;0.95;;;;;;;;;;5946052;28;20043;-73
2023/09/03 11:01:24;;;;;;;1.65;0.90;;;;;;;;;;5956884;28;20048;-72
2023/09/03 11:04:15;;;;;;;0.80;0.80;;;;;;;;;;5936831;28;20047;-73
2023/09/03 11:07:24;;;;;;;0.63;0.60;;;;;;;;;;5935576;28;20132;-73
2023/09/03 11:10:21;;;;;;;0.88;0.80;;;;;;;;;;5946488;28;20083;-75
2023/09/03 11:13:13;;;;;;;1.27;0.90;;;;;;;;;;5933613;28;20355;-74
2023/09/03 11:16:27;;;;;;;0.50;0.50;;;;;;;;;;5933670;28;20509;-73
2023/09/03 11:19:18;;;;;;;0.68;0.68;;;;;;;;;;5952437;27;20040;-73
2023/09/03 11:22:10;;;;;;;1.50;1.33;;;;;;;;;;5968056;27;20508;-74
2023/09/03 11:25:02;;;;;;;1.08;0.93;;;;;;;;;;5966369;27;20054;-73
2023/09/03 11:27:53;;;;;;;4.22;0.93;;;;;;;;;;5964008;27;20456;-72
2023/09/03 11:30:45;;;;;;;0.90;0.70;;;;;;;;;;5946862;27;20062;-73
2023/09/03 11:33:36;;;;;;;0.68;0.57;;;;;;;;;;5958724;27;20044;-73
2023/09/03 11:36:27;;;;;;;0.32;0.30;;;;;;;;;;5960713;28;20043;-75
2023/09/03 11:39:18;;;;;;;2.38;0.77;;;;;;;;;;5942978;28;20454;-74
2023/09/03 11:42:10;;;;;;;0.50;0.50;;;;;;;;;;5942991;28;20051;-74
2023/09/03 11:45:04;;;;;;;1.27;1.08;;;;;;;;;;5959737;28;20058;-73
2023/09/03 11:47:54;;;;;;;7.47;0.63;;;;;;;;;;5938421;28;20043;-73
2023/09/03 11:50:50;;;;;;;0.52;0.50;;;;;;;;;;5943357;28;20043;-73
2023/09/03 11:53:42;;;;;;;1.75;0.77;;;;;;;;;;5937821;27;20483;-74
2023/09/03 11:56:33;;;;;;;2.20;0.45;;;;;;;;;;5964324;27;20126;-75
2023/09/03 11:59:24;;;;;;;2.30;1.10;;;;;;;;;;5943362;28;20398;-73
2023/09/03 12:02:15;;;;;;;0.50;0.50;;;;;;;;;;5962949;27;20043;-72
2023/09/03 12:05:07;;;;;;;0.77;0.68;;;;;;;;;;5938022;28;20065;-73
2023/09/03 12:08:03;;;;;;;1.75;0.82;;;;;;;;;;5928792;28;20048;-74
2023/09/03 12:10:54;;;;;;;0.70;0.52;;;;;;;;;;5949187;28;20035;-73
2023/09/03 12:13:44;;;;;;;0.30;0.30;;;;;;;;;;5938107;28;20046;-73
2023/09/03 12:16:48;;;;;;;0.77;0.60;;;;;;;;;;5956271;27;20047;-74
2023/09/03 12:19:40;;;;;;;1.05;0.65;;;;;;;;;;5938195;28;20043;-73
2023/09/03 12:22:31;;;;;;;0.80;0.50;;;;;;;;;;5960386;28;20410;-73
2023/09/03 12:25:21;;;;;;;0.52;0.52;;;;;;;;;;5952963;28;20059;-72
2023/09/03 12:28:12;;;;;;;0.63;0.30;;;;;;;;;;5958805;28;20491;-73
2023/09/03 12:31:06;;;;;;;1.30;0.88;;;;;;;;;;5958005;28;20044;-73
2023/09/03 12:33:57;;;;;;;3.83;0.68;;;;;;;;;;5942742;28;20051;-73
2023/09/03 12:36:59;;;;;;;0.93;0.77;;;;;;;;;;5941103;28;20047;-73
2023/09/03 12:39:50;;;;;;;2.40;1.13;;;;;;;;;;5950570;28;20131;-73
2023/09/03 12:42:40;;;;;;;0.50;0.40;;;;;;;;;;5933820;28;20048;-73
2023/09/03 12:45:31;;;;;;;0.75;0.65;;;;;;;;;;5928399;28;20406;-72
2023/09/03 12:48:22;;;;;;;0.25;0.17;;;;;;;;;;5955113;28;20130;-73
2023/09/03 12:51:15;;;;;;;0.55;0.35;;;;;;;;;;5939166;28;20156;-73
2023/09/03 12:54:06;;;;;;;1.45;0.50;;;;;;;;;;5941023;28;20464;-73
2023/09/03 12:56:57;;;;;;;1.25;0.68;;;;;;;;;;5956001;28;20139;-73
2023/09/03 12:59:48;;;;;;;1.10;0.57;;;;;;;;;;5948977;28;20044;-73
2023/09/03 13:02:38;;;;;;;1.15;0.90;;;;;;;;;;5935393;28;20046;-72
2023/09/03 13:05:29;;;;;;;2.50;0.85;;;;;;;;;;5929168;28;20044;-74
2023/09/03 13:08:20;;;;;;;1.52;0.85;;;;;;;;;;5933989;28;20040;-73
2023/09/03 13:11:11;;;;;;;1.63;0.80;;;;;;;;;;5940876;28;20044;-72
2023/09/03 13:14:02;;;;;;;1.60;0.98;;;;;;;;;;5940751;28;20058;-74
2023/09/03 13:16:53;;;;;;;1.42;0.82;;;;;;;;;;5955768;28;20063;-73
2023/09/03 13:19:44;;;;;;;1.60;0.45;;;;;;;;;;5947524;28;20036;-72
2023/09/03 13:22:35;;;;;;;2.45;0.60;;;;;;;;;;5934342;28;20123;-72
2023/09/03 13:25:25;;;;;;;0.50;0.47;;;;;;;;;;5944902;28;20741;-72
2023/09/03 13:28:25;;;;;;;0.82;0.73;;;;;;;;;;5958548;28;20050;-73
2023/09/03 13:31:21;;;;;;;1.80;0.98;;;;;;;;;;5940445;28;20378;-74
2023/09/03 13:34:12;;;;;;;0.30;0.25;;;;;;;;;;5958533;28;20047;-73
2023/09/03 13:37:03;;;;;;;1.17;0.40;;;;;;;;;;5955021;28;20044;-72
2023/09/03 13:39:53;;;;;;;1.92;1.00;;;;;;;;;;5948313;28;20059;-72
2023/09/03 13:42:44;;;;;;;0.30;0.30;;;;;;;;;;5916492;28;20117;-73
2023/09/03 13:45:35;;;;;;;1.52;0.80;;;;;;;;;;5934495;28;20062;-73
2023/09/03 13:48:26;;;;;;;2.25;0.35;;;;;;;;;;5923307;28;20537;-73
2023/09/03 13:51:17;;;;;;;0.30;0.20;;;;;;;;;;5934961;28;20489;-73
2023/09/03 13:54:08;;;;;;;1.48;1.02;;;;;;;;;;5958085;28;20390;-74
2023/09/03 13:56:59;;;;;;;0.93;0.50;;;;;;;;;;5955615;28;20069;-73
2023/09/03 13:59:49;;;;;;;1.85;0.55;;;;;;;;;;5934400;28;20485;-73
2023/09/03 14:02:40;;;;;;;1.95;0.73;;;;;;;;;;5934316;28;20406;-72
2023/09/03 14:05:31;;;;;;;0.20;0.20;;;;;;;;;;5934368;28;20051;-72
2023/09/03 14:08:23;;;;;;;1.25;0.80;;;;;;;;;;5933599;28;20043;-72
2023/09/03 14:11:14;;;;;;;1.52;0.80;;;;;;;;;;5931410;28;20046;-72
2023/09/03 14:14:07;;;;;;;3.10;0.68;;;;;;;;;;5957804;28;20040;-73
2023/09/03 14:16:58;;;;;;;0.82;0.35;;;;;;;;;;5956401;28;20051;-72
2023/09/03 14:19:49;;;;;;;4.55;1.08;;;;;;;;;;5947035;28;20383;-72
2023/09/03 14:22:42;;;;;;;9.23;0.90;;;;;;;;;;5915599;28;20040;-72
2023/09/03 14:25:36;;;;;;;0.50;0.40;;;;;;;;;;5933503;28;20039;-73
2023/09/03 14:28:26;;;;;;;0.90;0.50;;;;;;;;;;5922575;28;20043;-73
2023/09/03 14:31:17;;;;;;;0.20;0.20;;;;;;;;;;5957193;28;20490;-73
2023/09/03 14:34:08;;;;;;;1.70;0.80;;;;;;;;;;5957165;28;20047;-74
2023/09/03 14:36:59;;;;;;;1.17;0.60;;;;;;;;;;5956825;28;20043;-72
2023/09/03 14:39:50;;;;;;;0.57;0.43;;;;;;;;;;5946950;28;20051;-72
2023/09/03 14:42:41;;;;;;;0.63;0.50;;;;;;;;;;5922054;28;20040;-72
2023/09/03 14:45:31;;;;;;;0.20;0.20;;;;;;;;;;5933361;28;20036;-74
2023/09/03 14:48:22;;;;;;;0.82;0.55;;;;;;;;;;5933174;28;20050;-73
2023/09/03 14:51:13;;;;;;;0.65;0.35;;;;;;;;;;5950082;28;20040;-73
2023/09/03 14:54:05;;;;;;;0.90;0.82;;;;;;;;;;5944221;28;20110;-72
2023/09/03 14:56:55;;;;;;;0.65;0.30;;;;;;;;;;5954735;28;20050;-73
2023/09/03 14:59:46;;;;;;;0.20;0.20;;;;;;;;;;5939147;28;20423;-72
2023/09/03 15:02:37;;;;;;;1.10;0.35;;;;;;;;;;5938170;28;20047;-72
2023/09/03 15:05:29;;;;;;;1.85;0.70;;;;;;;;;;5937989;28;20052;-72
2023/09/03 15:08:19;;;;;;;0.25;0.25;;;;;;;;;;5923865;28;20473;-72
2023/09/03 15:11:21;;;;;;;0.82;0.50;;;;;;;;;;5933641;28;20455;-72
2023/09/03 15:14:11;;;;;;;0.60;0.60;;;;;;;;;;5961163;28;20390;-72
2023/09/03 15:17:03;;;;;;;0.68;0.40;;;;;;;;;;5961619;28;20040;-72
2023/09/03 15:19:53;;;;;;;0.40;0.20;;;;;;;;;;5951537;28;20048;-73
2023/09/03 15:22:44;;;;;;;0.90;0.45;;;;;;;;;;5937789;28;20387;-72
2023/09/03 15:25:40;;;;;;;3.60;0.80;;;;;;;;;;5937646;28;20123;-73
2023/09/03 15:28:31;;;;;;;0.93;0.60;;;;;;;;;;5937735;28;20047;-72
2023/09/03 15:31:21;;;;;;;1.05;0.40;;;;;;;;;;5953939;28;20047;-73
2023/09/03 15:34:12;;;;;;;0.80;0.50;;;;;;;;;;5961351;28;20523;-73
2023/09/03 15:37:03;;;;;;;0.75;0.50;;;;;;;;;;5961483;28;20040;-72
2023/09/03 15:39:54;;;;;;;0.50;0.50;;;;;;;;;;5958809;28;20043;-73
2023/09/03 15:42:44;;;;;;;0.55;0.43;;;;;;;;;;5961133;28;20392;-72
2023/09/03 15:45:36;;;;;;;1.25;0.85;;;;;;;;;;5942844;28;20046;-73
2023/09/03 15:48:27;;;;;;;1.25;0.82;;;;;;;;;;5934104;28;20044;-73
2023/09/03 15:51:18;;;;;;;2.13;0.50;;;;;;;;;;5941762;28;20052;-72
2023/09/03 15:54:08;;;;;;;0.43;0.43;;;;;;;;;;5938134;28;20066;-73
2023/09/03 15:56:59;;;;;;;2.28;0.85;;;;;;;;;;5943393;28;20059;-72
2023/09/03 15:59:50;;;;;;;0.43;0.38;;;;;;;;;;5951898;28;20129;-72
2023/09/03 16:02:44;;;;;;;0.90;0.52;;;;;;;;;;5918339;28;20052;-73
2023/09/03 16:05:35;;;;;;;2.63;0.77;;;;;;;;;;5936843;28;20048;-72
2023/09/03 16:08:25;;;;;;;1.42;0.50;;;;;;;;;;5921764;28;20548;-73
2023/09/03 16:11:20;;;;;;;0.93;0.75;;;;;;;;;;5916509;28;20041;-73
2023/09/03 16:14:10;;;;;;;0.88;0.80;;;;;;;;;;5935831;28;20036;-73
2023/09/03 16:17:01;;;;;;;1.85;0.55;;;;;;;;;;5937024;28;20044;-72
2023/09/03 16:19:52;;;;;;;1.08;0.55;;;;;;;;;;5940462;28;20050;-73
2023/09/03 16:22:45;;;;;;;2.47;1.30;;;;;;;;;;5960179;28;20047;-73
2023/09/03 16:25:37;;;;;;;1.25;0.60;;;;;;;;;;5960311;28;20059;-73
2023/09/03 16:28:28;;;;;;;0.88;0.60;;;;;;;;;;5959140;28;20050;-73
2023/09/03 16:31:19;;;;;;;0.75;0.63;;;;;;;;;;5940777;28;20044;-74
2023/09/03 16:34:09;;;;;;;1.17;0.82;;;;;;;;;;5936283;28;20482;-73
2023/09/03 16:37:00;;;;;;;1.23;0.77;;;;;;;;;;5936118;28;20044;-72
2023/09/03 16:39:51;;;;;;;0.93;0.38;;;;;;;;;;5939635;28;20047;-72
2023/09/03 16:42:41;;;;;;;8.63;1.50;;;;;;;;;;5958901;28;20045;-74
2023/09/03 16:45:32;;;;;;;0.57;0.57;;;;;;;;;;5959531;28;20047;-72
2023/09/03 16:48:25;;;;;;;1.23;0.85;;;;;;;;;;5959312;28;20050;-72
2023/09/03 16:51:16;;;;;;;0.82;0.80;;;;;;;;;;5940464;28;20104;-73
2023/09/03 16:54:08;;;;;;;0.60;0.60;;;;;;;;;;5935931;28;20071;-72
2023/09/03 16:56:58;;;;;;;1.38;1.27;;;;;;;;;;5935081;28;20047;-73
2023/09/03 16:59:49;;;;;;;0.65;0.65;;;;;;;;;;5938806;28;20359;-73
2023/09/03 17:02:40;;;;;;;2.63;1.33;;;;;;;;;;5959455;28;20483;-72
2023/09/03 17:05:30;;;;;;;1.30;0.80;;;;;;;;;;5959241;28;20530;-74
2023/09/03 17:08:21;;;;;;;0.52;0.50;;;;;;;;;;5951498;28;20058;-73
2023/09/03 17:11:12;;;;;;;0.93;0.85;;;;;;;;;;5922465;28;20048;-72
2023/09/03 17:14:03;;;;;;;0.63;0.60;;;;;;;;;;5934457;28;20043;-72